sensor_id;sensor_type;location;lat;lon;timestamp;pressure;altitude;pressure_sealevel;temperature;humidity
74716;BME280;63234;37.558;127.058;2023-09-19T00:01:35;99757.22;;;16.88;85.88
74716;BME280;63234;37.558;127.058;2023-09-19T00:04:01;99755.34;;;16.84;85.49
74716;BME280;63234;37.558;127.058;2023-09-19T00:06:29;99758.00;;;16.89;85.76
74716;BME280;63234;37.558;127.058;2023-09-19T00:08:58;99763.66;;;16.82;85.44
74716;BME280;63234;37.558;127.058;2023-09-19T00:11:28;99752.13;;;16.87;85.40
74716;BME280;63234;37.558;127.058;2023-09-19T00:13:54;99751.84;;;16.88;85.96
74716;BME280;63234;37.558;127.058;2023-09-19T00:16:20;99742.47;;;16.81;85.10
74716;BME280;63234;37.558;127.058;2023-09-19T00:18:46;99754.03;;;16.86;85.11
74716;BME280;63234;37.558;127.058;2023-09-19T00:21:14;99759.63;;;16.85;85.33
74716;BME280;63234;37.558;127.058;2023-09-19T00:23:41;99747.81;;;16.96;85.29
74716;BME280;63234;37.558;127.058;2023-09-19T00:26:07;99746.19;;;16.95;85.34
74716;BME280;63234;37.558;127.058;2023-09-19T00:28:33;99754.53;;;16.93;84.65
74716;BME280;63234;37.558;127.058;2023-09-19T00:31:01;99747.84;;;16.81;85.30
74716;BME280;63234;37.558;127.058;2023-09-19T00:33:28;99749.69;;;16.75;86.04
74716;BME280;63234;37.558;127.058;2023-09-19T00:35:57;99731.44;;;16.72;85.44
74716;BME280;63234;37.558;127.058;2023-09-19T00:38:23;99751.59;;;16.85;84.89
74716;BME280;63234;37.558;127.058;2023-09-19T00:40:53;99753.22;;;16.76;85.38
74716;BME280;63234;37.558;127.058;2023-09-19T00:43:20;99755.88;;;16.86;85.28
74716;BME280;63234;37.558;127.058;2023-09-19T00:45:49;99756.44;;;16.78;85.50
74716;BME280;63234;37.558;127.058;2023-09-19T00:48:17;99759.09;;;16.67;85.73
74716;BME280;63234;37.558;127.058;2023-09-19T00:50:47;99762.88;;;16.56;85.68
74716;BME280;63234;37.558;127.058;2023-09-19T00:53:18;99767.44;;;16.76;85.29
74716;BME280;63234;37.558;127.058;2023-09-19T00:55:46;99771.22;;;16.80;85.02
74716;BME280;63234;37.558;127.058;2023-09-19T00:58:13;99761.28;;;16.81;85.08
74716;BME280;63234;37.558;127.058;2023-09-19T01:00:40;99770.38;;;16.80;84.67
74716;BME280;63234;37.558;127.058;2023-09-19T01:03:10;99772.56;;;16.78;85.36
74716;BME280;63234;37.558;127.058;2023-09-19T01:05:39;99776.56;;;16.85;84.39
74716;BME280;63234;37.558;127.058;2023-09-19T01:08:05;99773.34;;;16.68;85.25
74716;BME280;63234;37.558;127.058;2023-09-19T01:10:33;99780.88;;;16.76;84.77
74716;BME280;63234;37.558;127.058;2023-09-19T01:13:16;99787.56;;;16.68;85.20
74716;BME280;63234;37.558;127.058;2023-09-19T01:19:01;99782.47;;;16.62;85.14
74716;BME280;63234;37.558;127.058;2023-09-19T01:21:50;99759.09;;;16.57;85.16
74716;BME280;63234;37.558;127.058;2023-09-19T01:27:24;99785.94;;;16.72;84.86
74716;BME280;63234;37.558;127.058;2023-09-19T01:29:52;99770.66;;;16.58;84.97
74716;BME280;63234;37.558;127.058;2023-09-19T01:32:21;99766.59;;;16.70;84.78
74716;BME280;63234;37.558;127.058;2023-09-19T01:34:49;99774.16;;;16.68;84.74
74716;BME280;63234;37.558;127.058;2023-09-19T01:37:17;99770.63;;;16.73;84.90
74716;BME280;63234;37.558;127.058;2023-09-19T01:39:51;99780.56;;;16.67;84.78
74716;BME280;63234;37.558;127.058;2023-09-19T01:47:42;99799.91;;;16.64;85.51
74716;BME280;63234;37.558;127.058;2023-09-19T01:50:17;99792.38;;;16.61;85.38
74716;BME280;63234;37.558;127.058;2023-09-19T01:52:56;99789.72;;;16.56;85.87
74716;BME280;63234;37.558;127.058;2023-09-19T01:55:26;99797.22;;;16.54;85.88
74716;BME280;63234;37.558;127.058;2023-09-19T01:58:04;99802.03;;;16.67;85.65
74716;BME280;63234;37.558;127.058;2023-09-19T02:00:35;99812.00;;;16.72;85.34
74716;BME280;63234;37.558;127.058;2023-09-19T02:03:03;99809.31;;;16.72;85.61
74716;BME280;63234;37.558;127.058;2023-09-19T02:05:29;99809.84;;;16.64;85.63
74716;BME280;63234;37.558;127.058;2023-09-19T02:07:55;99808.78;;;16.60;85.62
74716;BME280;63234;37.558;127.058;2023-09-19T02:10:22;99812.00;;;16.72;85.47
74716;BME280;63234;37.558;127.058;2023-09-19T02:12:50;99812.84;;;16.78;85.07
74716;BME280;63234;37.558;127.058;2023-09-19T02:15:16;99806.34;;;16.73;85.30
74716;BME280;63234;37.558;127.058;2023-09-19T02:17:45;99792.13;;;16.68;85.25
74716;BME280;63234;37.558;127.058;2023-09-19T02:20:12;99809.31;;;16.62;85.77
74716;BME280;63234;37.558;127.058;2023-09-19T02:22:39;99811.72;;;16.63;86.04
74716;BME280;63234;37.558;127.058;2023-09-19T02:25:06;99817.09;;;16.68;85.52
74716;BME280;63234;37.558;127.058;2023-09-19T02:27:33;99816.81;;;16.70;85.75
74716;BME280;63234;37.558;127.058;2023-09-19T02:29:59;99824.88;;;16.70;85.57
74716;BME280;63234;37.558;127.058;2023-09-19T02:32:28;99820.31;;;16.70;85.26
74716;BME280;63234;37.558;127.058;2023-09-19T02:34:55;99831.59;;;16.83;85.34
74716;BME280;63234;37.558;127.058;2023-09-19T02:37:21;99825.97;;;16.79;85.05
74716;BME280;63234;37.558;127.058;2023-09-19T02:39:47;99824.38;;;16.83;85.32
74716;BME280;63234;37.558;127.058;2023-09-19T02:42:13;99814.38;;;16.73;85.05
74716;BME280;63234;37.558;127.058;2023-09-19T02:44:39;99818.72;;;16.85;85.45
74716;BME280;63234;37.558;127.058;2023-09-19T02:47:05;99812.56;;;16.84;84.87
74716;BME280;63234;37.558;127.058;2023-09-19T02:49:31;99823.00;;;16.86;84.82
74716;BME280;63234;37.558;127.058;2023-09-19T02:51:58;99816.88;;;16.80;85.19
74716;BME280;63234;37.558;127.058;2023-09-19T02:54:25;99827.56;;;16.85;85.01
74716;BME280;63234;37.558;127.058;2023-09-19T02:56:51;99834.31;;;16.78;85.44
74716;BME280;63234;37.558;127.058;2023-09-19T02:59:19;99833.19;;;16.73;86.27
74716;BME280;63234;37.558;127.058;2023-09-19T03:01:45;99833.75;;;16.65;86.76
74716;BME280;63234;37.558;127.058;2023-09-19T03:04:14;99836.16;;;16.57;87.66
74716;BME280;63234;37.558;127.058;2023-09-19T03:06:46;99838.00;;;16.36;88.49
74716;BME280;63234;37.558;127.058;2023-09-19T03:09:12;99836.38;;;16.29;89.34
74716;BME280;63234;37.558;127.058;2023-09-19T03:11:39;99839.84;;;16.25;89.42
74716;BME280;63234;37.558;127.058;2023-09-19T03:14:07;99833.16;;;16.27;89.50
74716;BME280;63234;37.558;127.058;2023-09-19T03:16:35;99853.03;;;16.37;89.53
74716;BME280;63234;37.558;127.058;2023-09-19T03:19:03;99843.91;;;16.43;89.37
74716;BME280;63234;37.558;127.058;2023-09-19T03:21:29;99842.84;;;16.44;89.37
74716;BME280;63234;37.558;127.058;2023-09-19T03:23:56;99840.69;;;16.36;89.11
74716;BME280;63234;37.558;127.058;2023-09-19T03:26:22;99838.03;;;16.41;89.51
74716;BME280;63234;37.558;127.058;2023-09-19T03:28:48;99833.72;;;16.40;89.30
74716;BME280;63234;37.558;127.058;2023-09-19T03:31:14;99832.09;;;16.34;89.54
74716;BME280;63234;37.558;127.058;2023-09-19T03:33:40;99837.47;;;16.39;89.14
74716;BME280;63234;37.558;127.058;2023-09-19T03:36:06;99829.97;;;16.36;89.41
74716;BME280;63234;37.558;127.058;2023-09-19T03:38:33;99832.09;;;16.34;89.52
74716;BME280;63234;37.558;127.058;2023-09-19T03:41:02;99838.81;;;16.41;89.12
74716;BME280;63234;37.558;127.058;2023-09-19T03:43:28;99831.84;;;16.40;89.17
74716;BME280;63234;37.558;127.058;2023-09-19T03:45:54;99832.09;;;16.39;89.36
74716;BME280;63234;37.558;127.058;2023-09-19T03:48:20;99841.22;;;16.43;89.28
74716;BME280;63234;37.558;127.058;2023-09-19T03:50:47;99845.28;;;16.56;89.04
74716;BME280;63234;37.558;127.058;2023-09-19T03:53:13;99845.56;;;16.59;88.47
74716;BME280;63234;37.558;127.058;2023-09-19T03:55:39;99842.06;;;16.54;88.44
74716;BME280;63234;37.558;127.058;2023-09-19T03:58:05;99847.69;;;16.57;88.73
74716;BME280;63234;37.558;127.058;2023-09-19T04:00:32;99853.59;;;16.59;88.38
74716;BME280;63234;37.558;127.058;2023-09-19T04:02:59;99857.06;;;16.55;88.55
74716;BME280;63234;37.558;127.058;2023-09-19T04:05:27;99864.06;;;16.40;89.11
74716;BME280;63234;37.558;127.058;2023-09-19T04:07:53;99871.84;;;16.47;89.10
74716;BME280;63234;37.558;127.058;2023-09-19T04:10:19;99864.28;;;16.34;89.54
74716;BME280;63234;37.558;127.058;2023-09-19T04:12:52;99882.03;;;16.35;89.67
74716;BME280;63234;37.558;127.058;2023-09-19T04:15:19;99885.78;;;16.49;89.23
74716;BME280;63234;37.558;127.058;2023-09-19T04:17:45;99890.91;;;16.56;88.61
74716;BME280;63234;37.558;127.058;2023-09-19T04:20:11;99887.94;;;16.57;89.04
74716;BME280;63234;37.558;127.058;2023-09-19T04:22:40;99886.88;;;16.48;89.32
74716;BME280;63234;37.558;127.058;2023-09-19T04:25:06;99893.88;;;16.69;88.38
74716;BME280;63234;37.558;127.058;2023-09-19T04:27:33;99893.38;;;16.88;88.40
74716;BME280;63234;37.558;127.058;2023-09-19T04:29:59;99885.56;;;16.76;87.39
74716;BME280;63234;37.558;127.058;2023-09-19T04:32:31;99891.50;;;16.88;87.16
74716;BME280;63234;37.558;127.058;2023-09-19T04:34:57;99890.44;;;17.00;86.09
74716;BME280;63234;37.558;127.058;2023-09-19T04:37:26;99892.81;;;16.86;85.54
74716;BME280;63234;37.558;127.058;2023-09-19T04:39:52;99900.63;;;16.77;85.77
74716;BME280;63234;37.558;127.058;2023-09-19T04:42:18;99899.56;;;16.78;86.21
74716;BME280;63234;37.558;127.058;2023-09-19T04:44:44;99900.91;;;16.81;86.12
74716;BME280;63234;37.558;127.058;2023-09-19T04:47:10;99908.94;;;16.76;86.12
74716;BME280;63234;37.558;127.058;2023-09-19T04:49:37;99917.00;;;16.81;85.64
74716;BME280;63234;37.558;127.058;2023-09-19T04:52:05;99926.41;;;16.88;85.58
74716;BME280;63234;37.558;127.058;2023-09-19T04:54:32;99927.22;;;16.79;85.58
74716;BME280;63234;37.558;127.058;2023-09-19T04:56:59;99927.47;;;16.87;85.22
74716;BME280;63234;37.558;127.058;2023-09-19T04:59:28;99921.31;;;16.87;85.46
74716;BME280;63234;37.558;127.058;2023-09-19T05:01:54;99922.13;;;16.87;85.02
74716;BME280;63234;37.558;127.058;2023-09-19T05:04:21;99935.53;;;16.87;84.66
74716;BME280;63234;37.558;127.058;2023-09-19T05:06:47;99940.94;;;16.92;84.73
74716;BME280;63234;37.558;127.058;2023-09-19T05:09:13;99939.03;;;16.88;85.14
74716;BME280;63234;37.558;127.058;2023-09-19T05:11:40;99937.94;;;16.89;84.91
74716;BME280;63234;37.558;127.058;2023-09-19T05:14:06;99944.41;;;16.88;84.78
74716;BME280;63234;37.558;127.058;2023-09-19T05:16:32;99937.97;;;16.84;84.99
74716;BME280;63234;37.558;127.058;2023-09-19T05:18:58;99941.72;;;16.88;84.57
74716;BME280;63234;37.558;127.058;2023-09-19T05:21:26;99938.50;;;16.96;84.24
74716;BME280;63234;37.558;127.058;2023-09-19T05:23:54;99952.75;;;16.96;84.46
74716;BME280;63234;37.558;127.058;2023-09-19T05:26:21;99956.47;;;16.85;84.92
74716;BME280;63234;37.558;127.058;2023-09-19T05:28:47;99953.81;;;16.80;85.52
74716;BME280;63234;37.558;127.058;2023-09-19T05:31:13;99956.75;;;16.84;85.22
74716;BME280;63234;37.558;127.058;2023-09-19T05:33:41;99957.28;;;16.91;85.06
74716;BME280;63234;37.558;127.058;2023-09-19T05:36:08;99964.28;;;17.02;84.45
74716;BME280;63234;37.558;127.058;2023-09-19T05:38:36;99966.97;;;17.02;84.04
74716;BME280;63234;37.558;127.058;2023-09-19T05:41:02;99970.75;;;17.01;84.14
74716;BME280;63234;37.558;127.058;2023-09-19T05:43:28;99957.53;;;16.79;85.09
74716;BME280;63234;37.558;127.058;2023-09-19T05:45:54;99964.81;;;16.94;85.47
74716;BME280;63234;37.558;127.058;2023-09-19T05:48:22;99962.69;;;16.96;85.09
74716;BME280;63234;37.558;127.058;2023-09-19T05:50:48;99958.91;;;16.87;85.36
74716;BME280;63234;37.558;127.058;2023-09-19T05:53:17;99972.63;;;17.06;85.46
74716;BME280;63234;37.558;127.058;2023-09-19T05:55:44;99980.41;;;17.28;84.56
74716;BME280;63234;37.558;127.058;2023-09-19T05:58:11;99979.09;;;17.20;84.31
74716;BME280;63234;37.558;127.058;2023-09-19T06:00:40;99994.94;;;17.27;83.78
74716;BME280;63234;37.558;127.058;2023-09-19T06:03:08;100003.53;;;17.29;83.52
74716;BME280;63234;37.558;127.058;2023-09-19T06:05:34;100004.59;;;17.12;83.97
74716;BME280;63234;37.558;127.058;2023-09-19T06:08:00;100009.97;;;17.07;83.94
74716;BME280;63234;37.558;127.058;2023-09-19T06:10:26;100000.81;;;16.98;83.98
74716;BME280;63234;37.558;127.058;2023-09-19T06:12:54;100002.94;;;16.81;84.58
74716;BME280;63234;37.558;127.058;2023-09-19T06:15:23;100002.41;;;16.94;83.97
74716;BME280;63234;37.558;127.058;2023-09-19T06:17:55;99996.25;;;16.99;84.25
74716;BME280;63234;37.558;127.058;2023-09-19T06:20:23;99984.97;;;17.12;83.82
74716;BME280;63234;37.558;127.058;2023-09-19T06:22:50;99993.31;;;17.20;82.71
74716;BME280;63234;37.558;127.058;2023-09-19T06:25:18;99996.00;;;17.15;82.63
74716;BME280;63234;37.558;127.058;2023-09-19T06:27:51;99987.41;;;17.13;81.92
74716;BME280;63234;37.558;127.058;2023-09-19T06:30:20;99995.19;;;17.10;82.05
74716;BME280;63234;37.558;127.058;2023-09-19T06:32:47;100000.59;;;17.20;81.24
74716;BME280;63234;37.558;127.058;2023-09-19T06:35:15;99996.78;;;17.16;79.89
74716;BME280;63234;37.558;127.058;2023-09-19T06:37:42;100001.91;;;17.02;79.86
74716;BME280;63234;37.558;127.058;2023-09-19T06:40:10;100006.72;;;16.90;79.77
74716;BME280;63234;37.558;127.058;2023-09-19T06:42:46;100006.16;;;16.83;79.65
74716;BME280;63234;37.558;127.058;2023-09-19T06:45:14;100012.63;;;16.87;79.25
74716;BME280;63234;37.558;127.058;2023-09-19T06:47:45;100012.56;;;16.77;78.54
74716;BME280;63234;37.558;127.058;2023-09-19T06:50:12;100018.78;;;16.82;78.42
74716;BME280;63234;37.558;127.058;2023-09-19T06:52:41;100019.03;;;16.86;78.76
74716;BME280;63234;37.558;127.058;2023-09-19T06:55:07;100019.84;;;16.81;77.86
74716;BME280;63234;37.558;127.058;2023-09-19T06:57:35;100014.22;;;16.78;78.35
74716;BME280;63234;37.558;127.058;2023-09-19T07:00:01;100020.66;;;16.82;77.75
74716;BME280;63234;37.558;127.058;2023-09-19T07:02:28;100029.19;;;16.68;77.39
74716;BME280;63234;37.558;127.058;2023-09-19T07:04:54;100024.94;;;16.78;78.32
74716;BME280;63234;37.558;127.058;2023-09-19T07:07:20;100020.09;;;16.74;77.74
74716;BME280;63234;37.558;127.058;2023-09-19T07:09:46;100034.91;;;16.87;76.91
74716;BME280;63234;37.558;127.058;2023-09-19T07:12:14;100031.19;;;16.99;76.77
74716;BME280;63234;37.558;127.058;2023-09-19T07:14:40;100036.25;;;16.95;76.18
74716;BME280;63234;37.558;127.058;2023-09-19T07:17:06;100034.69;;;17.04;75.54
74716;BME280;63234;37.558;127.058;2023-09-19T07:19:33;100030.94;;;17.10;75.32
74716;BME280;63234;37.558;127.058;2023-09-19T07:21:59;100033.66;;;17.26;74.44
74716;BME280;63234;37.558;127.058;2023-09-19T07:24:28;100035.25;;;17.37;73.66
74716;BME280;63234;37.558;127.058;2023-09-19T07:26:54;100027.72;;;17.34;73.89
74716;BME280;63234;37.558;127.058;2023-09-19T07:29:20;100032.56;;;17.42;73.30
74716;BME280;63234;37.558;127.058;2023-09-19T07:31:46;100033.91;;;17.55;73.14
74716;BME280;63234;37.558;127.058;2023-09-19T07:34:12;100038.47;;;17.49;73.27
74716;BME280;63234;37.558;127.058;2023-09-19T07:36:39;100039.81;;;17.52;72.66
74716;BME280;63234;37.558;127.058;2023-09-19T07:39:07;100044.13;;;17.63;72.95
74716;BME280;63234;37.558;127.058;2023-09-19T07:41:33;100046.00;;;17.62;73.08
74716;BME280;63234;37.558;127.058;2023-09-19T07:43:59;100045.72;;;17.69;72.61
74716;BME280;63234;37.558;127.058;2023-09-19T07:46:25;100053.81;;;17.79;72.15
74716;BME280;63234;37.558;127.058;2023-09-19T07:48:52;100035.78;;;17.85;71.77
74716;BME280;63234;37.558;127.058;2023-09-19T07:51:18;100037.13;;;17.87;71.69
74716;BME280;63234;37.558;127.058;2023-09-19T07:53:44;100053.78;;;18.05;71.95
74716;BME280;63234;37.558;127.058;2023-09-19T07:56:10;100057.81;;;17.97;70.69
74716;BME280;63234;37.558;127.058;2023-09-19T07:58:39;100062.91;;;18.09;71.50
74716;BME280;63234;37.558;127.058;2023-09-19T08:01:07;100062.66;;;17.95;70.93
74716;BME280;63234;37.558;127.058;2023-09-19T08:03:34;100053.53;;;17.91;71.61
74716;BME280;63234;37.558;127.058;2023-09-19T08:06:00;100061.03;;;18.04;71.03
74716;BME280;63234;37.558;127.058;2023-09-19T08:08:28;100066.94;;;18.17;71.91
74716;BME280;63234;37.558;127.058;2023-09-19T08:10:54;100065.84;;;18.23;70.09
74716;BME280;63234;37.558;127.058;2023-09-19T08:13:25;100075.50;;;18.44;67.35
74716;BME280;63234;37.558;127.058;2023-09-19T08:15:52;100071.69;;;18.50;63.39
74716;BME280;63234;37.558;127.058;2023-09-19T08:18:19;100070.38;;;18.43;62.28
74716;BME280;63234;37.558;127.058;2023-09-19T08:20:53;100074.91;;;18.52;62.34
74716;BME280;63234;37.558;127.058;2023-09-19T08:23:19;100076.47;;;18.69;61.62
74716;BME280;63234;37.558;127.058;2023-09-19T08:25:46;100076.97;;;18.71;61.35
74716;BME280;63234;37.558;127.058;2023-09-19T08:28:12;100071.78;;;18.90;60.60
74716;BME280;63234;37.558;127.058;2023-09-19T08:30:43;100063.75;;;18.85;60.03
74716;BME280;63234;37.558;127.058;2023-09-19T08:33:09;100082.06;;;18.88;59.10
74716;BME280;63234;37.558;127.058;2023-09-19T08:35:35;100084.50;;;18.84;59.80
74716;BME280;63234;37.558;127.058;2023-09-19T08:38:03;100073.69;;;18.89;60.00
74716;BME280;63234;37.558;127.058;2023-09-19T08:40:36;100086.59;;;18.97;59.86
74716;BME280;63234;37.558;127.058;2023-09-19T08:43:04;100084.44;;;18.99;59.26
74716;BME280;63234;37.558;127.058;2023-09-19T08:45:31;100084.59;;;19.13;59.18
74716;BME280;63234;37.558;127.058;2023-09-19T08:48:16;100091.31;;;19.21;59.03
74716;BME280;63234;37.558;127.058;2023-09-19T08:50:49;100085.97;;;19.11;59.73
74716;BME280;63234;37.558;127.058;2023-09-19T08:53:28;100078.16;;;19.09;57.36
74716;BME280;63234;37.558;127.058;2023-09-19T08:55:59;100079.69;;;19.25;56.34
74716;BME280;63234;37.558;127.058;2023-09-19T08:58:34;100086.19;;;19.19;56.17
74716;BME280;63234;37.558;127.058;2023-09-19T09:01:06;100090.25;;;19.17;55.86
74716;BME280;63234;37.558;127.058;2023-09-19T09:03:35;100082.69;;;19.19;56.22
74716;BME280;63234;37.558;127.058;2023-09-19T09:06:01;100092.34;;;19.30;56.04
74716;BME280;63234;37.558;127.058;2023-09-19T09:08:30;100090.66;;;19.39;55.27
74716;BME280;63234;37.558;127.058;2023-09-19T09:10:56;100090.75;;;19.24;55.50
74716;BME280;63234;37.558;127.058;2023-09-19T09:13:24;100085.91;;;19.21;55.05
74716;BME280;63234;37.558;127.058;2023-09-19T09:15:51;100090.69;;;19.34;55.06
74716;BME280;63234;37.558;127.058;2023-09-19T09:18:19;100092.28;;;19.35;55.50
74716;BME280;63234;37.558;127.058;2023-09-19T09:20:45;100096.63;;;19.31;55.18
74716;BME280;63234;37.558;127.058;2023-09-19T09:23:13;100091.78;;;19.33;54.79
74716;BME280;63234;37.558;127.058;2023-09-19T09:28:26;100087.19;;;19.29;55.76
74716;BME280;63234;37.558;127.058;2023-09-19T09:30:54;100088.09;;;19.53;55.43
74716;BME280;63234;37.558;127.058;2023-09-19T09:33:20;100077.66;;;19.41;54.19
74716;BME280;63234;37.558;127.058;2023-09-19T09:35:58;100083.00;;;19.52;53.49
74716;BME280;63234;37.558;127.058;2023-09-19T09:38:30;100075.09;;;19.65;53.40
74716;BME280;63234;37.558;127.058;2023-09-19T09:41:09;100080.78;;;19.59;53.54
74716;BME280;63234;37.558;127.058;2023-09-19T09:43:39;100085.66;;;19.57;54.18
74716;BME280;63234;37.558;127.058;2023-09-19T09:46:07;100086.84;;;19.45;54.05
74716;BME280;63234;37.558;127.058;2023-09-19T09:49:02;100078.63;;;19.66;54.17
74716;BME280;63234;37.558;127.058;2023-09-19T09:52:01;100076.06;;;19.80;53.30
74716;BME280;63234;37.558;127.058;2023-09-19T09:54:31;100073.41;;;20.04;52.36
74716;BME280;63234;37.558;127.058;2023-09-19T09:57:08;100071.88;;;19.92;51.81
74716;BME280;63234;37.558;127.058;2023-09-19T09:59:55;100078.00;;;20.03;51.43
74716;BME280;63234;37.558;127.058;2023-09-19T10:02:41;100077.91;;;20.13;52.08
74716;BME280;63234;37.558;127.058;2023-09-19T10:05:17;100065.69;;;20.21;51.70
74716;BME280;63234;37.558;127.058;2023-09-19T10:07:51;100076.47;;;20.45;51.00
74716;BME280;63234;37.558;127.058;2023-09-19T10:10:43;100077.63;;;20.63;50.63
74716;BME280;63234;37.558;127.058;2023-09-19T10:13:19;100074.34;;;20.66;50.14
74716;BME280;63234;37.558;127.058;2023-09-19T10:15:50;100079.66;;;20.52;49.80
74716;BME280;63234;37.558;127.058;2023-09-19T10:18:27;100070.16;;;20.31;49.16
74716;BME280;63234;37.558;127.058;2023-09-19T10:20:56;100067.41;;;20.36;49.08
74716;BME280;63234;37.558;127.058;2023-09-19T10:23:25;100067.50;;;20.50;48.55
74716;BME280;63234;37.558;127.058;2023-09-19T10:25:56;100060.44;;;20.54;48.34
74716;BME280;63234;37.558;127.058;2023-09-19T10:28:27;100064.63;;;20.65;48.29
74716;BME280;63234;37.558;127.058;2023-09-19T10:30:55;100066.13;;;20.76;48.29
74716;BME280;63234;37.558;127.058;2023-09-19T10:33:25;100046.47;;;20.90;48.12
74716;BME280;63234;37.558;127.058;2023-09-19T10:35:58;100053.41;;;20.96;48.13
74716;BME280;63234;37.558;127.058;2023-09-19T10:38:26;100056.78;;;21.06;48.39
74716;BME280;63234;37.558;127.058;2023-09-19T10:40:55;100054.25;;;21.15;48.20
74716;BME280;63234;37.558;127.058;2023-09-19T10:43:33;100047.22;;;21.14;48.24
74716;BME280;63234;37.558;127.058;2023-09-19T10:46:03;100051.91;;;21.27;47.73
74716;BME280;63234;37.558;127.058;2023-09-19T10:48:32;100058.38;;;21.26;47.82
74716;BME280;63234;37.558;127.058;2023-09-19T10:53:52;100059.91;;;21.33;47.66
74716;BME280;63234;37.558;127.058;2023-09-19T10:56:42;100057.00;;;21.29;47.43
74716;BME280;63234;37.558;127.058;2023-09-19T10:59:12;100052.75;;;21.23;48.27
74716;BME280;63234;37.558;127.058;2023-09-19T11:01:43;100055.91;;;21.49;47.76
74716;BME280;63234;37.558;127.058;2023-09-19T11:04:32;100049.56;;;21.40;47.23
74716;BME280;63234;37.558;127.058;2023-09-19T11:07:10;100051.91;;;21.60;47.86
74716;BME280;63234;37.558;127.058;2023-09-19T11:09:53;100054.72;;;21.55;46.59
74716;BME280;63234;37.558;127.058;2023-09-19T11:14:57;100045.75;;;21.41;47.68
74716;BME280;63234;37.558;127.058;2023-09-19T11:17:41;100050.78;;;21.28;48.35
74716;BME280;63234;37.558;127.058;2023-09-19T11:30:48;100029.22;;;21.23;48.22
74716;BME280;63234;37.558;127.058;2023-09-19T11:36:06;100024.75;;;21.33;47.96
74716;BME280;63234;37.558;127.058;2023-09-19T11:46:34;100030.31;;;21.88;46.73
74716;BME280;63234;37.558;127.058;2023-09-19T11:49:18;100025.44;;;21.57;46.32
74716;BME280;63234;37.558;127.058;2023-09-19T11:51:51;100023.19;;;21.64;46.35
74716;BME280;63234;37.558;127.058;2023-09-19T11:54:18;100018.44;;;21.56;46.60
74716;BME280;63234;37.558;127.058;2023-09-19T11:56:51;100006.69;;;21.47;47.03
74716;BME280;63234;37.558;127.058;2023-09-19T11:59:27;100022.13;;;21.79;45.19
74716;BME280;63234;37.558;127.058;2023-09-19T12:02:07;100003.25;;;21.88;44.12
74716;BME280;63234;37.558;127.058;2023-09-19T12:04:41;100014.78;;;21.93;44.15
74716;BME280;63234;37.558;127.058;2023-09-19T12:07:13;100008.47;;;21.84;44.11
74716;BME280;63234;37.558;127.058;2023-09-19T12:09:49;100012.97;;;21.61;44.59
74716;BME280;63234;37.558;127.058;2023-09-19T12:12:26;100007.06;;;21.73;45.44
74716;BME280;63234;37.558;127.058;2023-09-19T12:14:53;99998.56;;;21.93;44.80
74716;BME280;63234;37.558;127.058;2023-09-19T12:17:20;99987.44;;;21.95;45.40
74716;BME280;63234;37.558;127.058;2023-09-19T12:19:53;100000.25;;;21.89;46.16
74716;BME280;63234;37.558;127.058;2023-09-19T12:22:19;99979.81;;;21.83;46.38
74716;BME280;63234;37.558;127.058;2023-09-19T12:24:48;100002.66;;;21.91;46.29
74716;BME280;63234;37.558;127.058;2023-09-19T12:27:16;99988.84;;;21.92;45.70
74716;BME280;63234;37.558;127.058;2023-09-19T12:29:48;99995.56;;;21.95;46.33
74716;BME280;63234;37.558;127.058;2023-09-19T12:32:15;99997.84;;;21.74;45.90
74716;BME280;63234;37.558;127.058;2023-09-19T12:34:51;99993.25;;;21.88;46.15
74716;BME280;63234;37.558;127.058;2023-09-19T12:37:18;99994.34;;;22.01;46.45
74716;BME280;63234;37.558;127.058;2023-09-19T12:39:49;99983.81;;;22.13;45.99
74716;BME280;63234;37.558;127.058;2023-09-19T12:42:23;99985.50;;;22.09;45.71
74716;BME280;63234;37.558;127.058;2023-09-19T12:44:53;99988.16;;;22.01;46.10
74716;BME280;63234;37.558;127.058;2023-09-19T12:47:22;99991.31;;;21.75;46.51
74716;BME280;63234;37.558;127.058;2023-09-19T12:50:15;99974.78;;;21.76;46.57
74716;BME280;63234;37.558;127.058;2023-09-19T12:52:52;99982.81;;;21.95;45.45
74716;BME280;63234;37.558;127.058;2023-09-19T12:55:28;99978.81;;;22.20;45.69
74716;BME280;63234;37.558;127.058;2023-09-19T13:00:38;99960.34;;;22.50;45.34
74716;BME280;63234;37.558;127.058;2023-09-19T13:08:27;99962.31;;;22.58;45.09
74716;BME280;63234;37.558;127.058;2023-09-19T13:13:27;99953.59;;;22.48;44.64
74716;BME280;63234;37.558;127.058;2023-09-19T13:15:55;99955.00;;;22.81;44.52
74716;BME280;63234;37.558;127.058;2023-09-19T13:18:23;99957.66;;;22.73;44.68
74716;BME280;63234;37.558;127.058;2023-09-19T13:21:27;99948.38;;;22.87;43.79
74716;BME280;63234;37.558;127.058;2023-09-19T13:23:55;99934.22;;;22.54;44.11
74716;BME280;63234;37.558;127.058;2023-09-19T13:26:27;99953.53;;;22.39;44.49
74716;BME280;63234;37.558;127.058;2023-09-19T13:28:57;99944.22;;;22.17;46.26
74716;BME280;63234;37.558;127.058;2023-09-19T13:31:23;99947.13;;;22.21;45.94
74716;BME280;63234;37.558;127.058;2023-09-19T13:33:49;99944.84;;;22.28;46.40
74716;BME280;63234;37.558;127.058;2023-09-19T13:36:16;99931.03;;;22.52;45.91
74716;BME280;63234;37.558;127.058;2023-09-19T13:38:44;99940.06;;;22.84;45.34